sensor_id;sensor_type;location;lat;lon;timestamp;P1;durP1;ratioP1;P2;durP2;ratioP2
9968;SDS011;5025;48.890;9.278;2023-01-23T18:18:26;10.33;;;9.33;;
9968;SDS011;5025;48.890;9.278;2023-01-23T18:20:54;12.13;;;10.90;;
9968;SDS011;5025;48.890;9.278;2023-01-23T18:23:23;12.57;;;10.40;;
9968;SDS011;5025;48.890;9.278;2023-01-23T18:25:56;13.03;;;11.27;;
9968;SDS011;5025;48.890;9.278;2023-01-23T18:28:34;10.30;;;9.30;;
9968;SDS011;5025;48.890;9.278;2023-01-23T18:31:21;11.43;;;9.93;;
9968;SDS011;5025;48.890;9.278;2023-01-23T18:43:37;12.07;;;10.87;;
9968;SDS011;5025;48.890;9.278;2023-01-23T18:46:25;12.57;;;10.63;;
9968;SDS011;5025;48.890;9.278;2023-01-23T18:48:52;32.30;;;20.53;;
9968;SDS011;5025;48.890;9.278;2023-01-23T19:05:34;228.80;;;86.10;;
9968;SDS011;5025;48.890;9.278;2023-01-23T19:07:54;198.17;;;75.90;;
9968;SDS011;5025;48.890;9.278;2023-01-23T19:10:21;176.27;;;72.70;;
9968;SDS011;5025;48.890;9.278;2023-01-23T19:21:23;86.90;;;48.47;;
9968;SDS011;5025;48.890;9.278;2023-01-23T19:28:54;158.23;;;79.60;;
9968;SDS011;5025;48.890;9.278;2023-01-23T19:31:22;133.30;;;67.30;;
9968;SDS011;5025;48.890;9.278;2023-01-23T19:33:53;114.60;;;57.37;;
9968;SDS011;5025;48.890;9.278;2023-01-23T19:36:20;97.30;;;50.53;;
9968;SDS011;5025;48.890;9.278;2023-01-23T19:38:46;71.10;;;41.43;;
9968;SDS011;5025;48.890;9.278;2023-01-23T19:41:17;67.67;;;38.77;;
9968;SDS011;5025;48.890;9.278;2023-01-23T19:43:47;40.60;;;25.63;;
9968;SDS011;5025;48.890;9.278;2023-01-23T19:46:14;31.43;;;21.30;;
9968;SDS011;5025;48.890;9.278;2023-01-23T19:48:40;32.00;;;21.50;;
9968;SDS011;5025;48.890;9.278;2023-01-23T19:51:05;24.43;;;17.57;;
9968;SDS011;5025;48.890;9.278;2023-01-23T19:53:33;21.00;;;15.53;;
9968;SDS011;5025;48.890;9.278;2023-01-23T19:55:58;23.10;;;15.93;;
9968;SDS011;5025;48.890;9.278;2023-01-23T19:58:25;22.07;;;16.60;;
9968;SDS011;5025;48.890;9.278;2023-01-23T20:00:50;20.87;;;16.93;;
9968;SDS011;5025;48.890;9.278;2023-01-23T20:03:16;18.63;;;14.87;;
9968;SDS011;5025;48.890;9.278;2023-01-23T20:05:41;17.13;;;14.40;;
9968;SDS011;5025;48.890;9.278;2023-01-23T20:08:07;25.50;;;19.27;;
9968;SDS011;5025;48.890;9.278;2023-01-23T20:10:32;25.07;;;18.77;;
9968;SDS011;5025;48.890;9.278;2023-01-23T20:12:57;27.87;;;20.43;;
9968;SDS011;5025;48.890;9.278;2023-01-23T20:15:23;25.80;;;20.20;;
9968;SDS011;5025;48.890;9.278;2023-01-23T20:17:52;24.80;;;18.40;;
9968;SDS011;5025;48.890;9.278;2023-01-23T20:20:18;23.57;;;18.83;;
9968;SDS011;5025;48.890;9.278;2023-01-23T20:22:44;21.17;;;17.70;;
9968;SDS011;5025;48.890;9.278;2023-01-23T20:25:10;26.73;;;17.90;;
9968;SDS011;5025;48.890;9.278;2023-01-23T20:27:38;22.47;;;16.70;;
9968;SDS011;5025;48.890;9.278;2023-01-23T20:30:05;21.50;;;15.13;;
9968;SDS011;5025;48.890;9.278;2023-01-23T20:32:33;17.13;;;13.97;;
9968;SDS011;5025;48.890;9.278;2023-01-23T20:34:59;16.20;;;13.50;;
9968;SDS011;5025;48.890;9.278;2023-01-23T20:37:24;14.30;;;12.67;;
9968;SDS011;5025;48.890;9.278;2023-01-23T20:39:50;12.73;;;11.47;;
9968;SDS011;5025;48.890;9.278;2023-01-23T20:42:16;13.23;;;11.90;;
9968;SDS011;5025;48.890;9.278;2023-01-23T20:44:41;13.13;;;11.73;;
9968;SDS011;5025;48.890;9.278;2023-01-23T20:47:07;11.60;;;10.40;;
9968;SDS011;5025;48.890;9.278;2023-01-23T20:49:32;12.03;;;10.63;;
9968;SDS011;5025;48.890;9.278;2023-01-23T20:51:57;13.50;;;12.10;;
9968;SDS011;5025;48.890;9.278;2023-01-23T20:54:43;13.13;;;11.83;;
9968;SDS011;5025;48.890;9.278;2023-01-23T20:57:10;15.10;;;13.47;;
9968;SDS011;5025;48.890;9.278;2023-01-23T20:59:36;13.33;;;11.93;;
9968;SDS011;5025;48.890;9.278;2023-01-23T21:02:02;12.80;;;11.50;;
9968;SDS011;5025;48.890;9.278;2023-01-23T21:04:46;13.40;;;12.00;;
9968;SDS011;5025;48.890;9.278;2023-01-23T21:07:11;15.57;;;12.60;;
9968;SDS011;5025;48.890;9.278;2023-01-23T21:09:36;12.80;;;11.60;;
9968;SDS011;5025;48.890;9.278;2023-01-23T21:12:01;14.40;;;12.27;;
9968;SDS011;5025;48.890;9.278;2023-01-23T21:14:27;13.83;;;12.43;;
9968;SDS011;5025;48.890;9.278;2023-01-23T21:16:52;14.00;;;12.60;;
9968;SDS011;5025;48.890;9.278;2023-01-23T21:19:18;16.17;;;14.47;;
9968;SDS011;5025;48.890;9.278;2023-01-23T21:21:43;16.37;;;14.37;;
9968;SDS011;5025;48.890;9.278;2023-01-23T21:24:08;16.03;;;13.60;;
9968;SDS011;5025;48.890;9.278;2023-01-23T21:26:35;16.00;;;14.33;;
9968;SDS011;5025;48.890;9.278;2023-01-23T21:29:01;15.43;;;13.03;;
9968;SDS011;5025;48.890;9.278;2023-01-23T21:31:28;13.73;;;12.40;;
9968;SDS011;5025;48.890;9.278;2023-01-23T21:34:00;13.53;;;12.13;;
9968;SDS011;5025;48.890;9.278;2023-01-23T21:36:30;14.27;;;12.80;;
9968;SDS011;5025;48.890;9.278;2023-01-23T21:38:55;13.90;;;12.47;;
9968;SDS011;5025;48.890;9.278;2023-01-23T21:41:21;14.73;;;13.23;;
9968;SDS011;5025;48.890;9.278;2023-01-23T21:43:47;14.13;;;12.73;;
9968;SDS011;5025;48.890;9.278;2023-01-23T21:46:13;14.73;;;13.33;;
9968;SDS011;5025;48.890;9.278;2023-01-23T21:48:38;13.53;;;12.13;;
9968;SDS011;5025;48.890;9.278;2023-01-23T21:51:10;13.10;;;11.80;;
9968;SDS011;5025;48.890;9.278;2023-01-23T21:53:41;13.83;;;12.40;;
9968;SDS011;5025;48.890;9.278;2023-01-23T21:56:09;11.90;;;10.70;;
9968;SDS011;5025;48.890;9.278;2023-01-23T21:58:35;16.10;;;14.03;;
9968;SDS011;5025;48.890;9.278;2023-01-23T22:01:02;14.03;;;12.57;;
9968;SDS011;5025;48.890;9.278;2023-01-23T22:03:49;13.30;;;11.90;;
9968;SDS011;5025;48.890;9.278;2023-01-23T22:06:14;13.13;;;11.83;;
9968;SDS011;5025;48.890;9.278;2023-01-23T22:08:40;12.77;;;11.43;;
9968;SDS011;5025;48.890;9.278;2023-01-23T22:11:06;12.43;;;11.23;;
9968;SDS011;5025;48.890;9.278;2023-01-23T22:13:33;13.73;;;12.33;;
9968;SDS011;5025;48.890;9.278;2023-01-23T22:15:59;11.40;;;10.23;;
9968;SDS011;5025;48.890;9.278;2023-01-23T22:18:25;12.63;;;11.33;;
9968;SDS011;5025;48.890;9.278;2023-01-23T22:20:54;13.17;;;11.77;;
9968;SDS011;5025;48.890;9.278;2023-01-23T22:23:21;12.87;;;11.57;;
9968;SDS011;5025;48.890;9.278;2023-01-23T22:25:50;12.77;;;11.47;;
9968;SDS011;5025;48.890;9.278;2023-01-23T22:28:18;13.10;;;11.80;;
9968;SDS011;5025;48.890;9.278;2023-01-23T22:30:44;12.53;;;11.33;;
9968;SDS011;5025;48.890;9.278;2023-01-23T22:33:09;12.83;;;11.53;;
9968;SDS011;5025;48.890;9.278;2023-01-23T22:35:38;13.43;;;11.93;;
9968;SDS011;5025;48.890;9.278;2023-01-23T22:38:04;13.03;;;11.73;;
9968;SDS011;5025;48.890;9.278;2023-01-23T22:40:30;11.97;;;10.87;;
9968;SDS011;5025;48.890;9.278;2023-01-23T22:42:55;13.43;;;12.07;;
9968;SDS011;5025;48.890;9.278;2023-01-23T22:45:20;12.10;;;10.90;;
9968;SDS011;5025;48.890;9.278;2023-01-23T22:47:46;11.37;;;10.37;;
9968;SDS011;5025;48.890;9.278;2023-01-23T22:50:11;12.30;;;11.07;;
9968;SDS011;5025;48.890;9.278;2023-01-23T22:52:37;12.10;;;10.87;;
9968;SDS011;5025;48.890;9.278;2023-01-23T22:55:02;11.00;;;9.90;;
9968;SDS011;5025;48.890;9.278;2023-01-23T22:57:28;11.13;;;10.03;;
9968;SDS011;5025;48.890;9.278;2023-01-23T22:59:53;12.00;;;10.90;;
9968;SDS011;5025;48.890;9.278;2023-01-23T23:02:18;12.30;;;11.07;;
9968;SDS011;5025;48.890;9.278;2023-01-23T23:04:43;12.43;;;11.13;;
9968;SDS011;5025;48.890;9.278;2023-01-23T23:07:09;11.73;;;10.53;;
9968;SDS011;5025;48.890;9.278;2023-01-23T23:09:36;11.73;;;10.53;;
9968;SDS011;5025;48.890;9.278;2023-01-23T23:12:01;10.90;;;9.80;;
9968;SDS011;5025;48.890;9.278;2023-01-23T23:14:27;11.03;;;9.93;;
9968;SDS011;5025;48.890;9.278;2023-01-23T23:16:52;11.20;;;10.10;;
9968;SDS011;5025;48.890;9.278;2023-01-23T23:19:17;11.10;;;9.90;;
9968;SDS011;5025;48.890;9.278;2023-01-23T23:21:43;11.53;;;10.37;;
9968;SDS011;5025;48.890;9.278;2023-01-23T23:24:09;12.40;;;11.13;;
9968;SDS011;5025;48.890;9.278;2023-01-23T23:26:36;12.03;;;10.83;;
9968;SDS011;5025;48.890;9.278;2023-01-23T23:29:02;11.67;;;10.57;;
9968;SDS011;5025;48.890;9.278;2023-01-23T23:31:28;11.80;;;10.60;;
9968;SDS011;5025;48.890;9.278;2023-01-23T23:33:53;10.83;;;9.83;;
9968;SDS011;5025;48.890;9.278;2023-01-23T23:36:19;13.23;;;11.93;;
9968;SDS011;5025;48.890;9.278;2023-01-23T23:38:44;12.83;;;11.53;;
9968;SDS011;5025;48.890;9.278;2023-01-23T23:41:10;11.10;;;10.10;;
9968;SDS011;5025;48.890;9.278;2023-01-23T23:43:37;11.17;;;10.13;;
9968;SDS011;5025;48.890;9.278;2023-01-23T23:46:03;11.10;;;10.00;;
9968;SDS011;5025;48.890;9.278;2023-01-23T23:48:30;10.40;;;9.40;;
9968;SDS011;5025;48.890;9.278;2023-01-23T23:51:01;10.20;;;9.20;;
9968;SDS011;5025;48.890;9.278;2023-01-23T23:53:28;10.43;;;9.40;;
9968;SDS011;5025;48.890;9.278;2023-01-23T23:55:54;10.93;;;9.77;;
9968;SDS011;5025;48.890;9.278;2023-01-23T23:58:19;11.30;;;10.13;;
